Time;durP1;ratioP1;P1;durP2;ratioP2;P2;SDS_P1;SDS_P2;PMS_P1;PMS_P2;Temp;Humidity;BMP_temperature;BMP_pressure;BME280_temperature;BME280_humidity;BME280_pressure;Samples;Min_cycle;Max_cycle;Signal;HPM_P1;HPM_P2
2022/10/15 00:04:31;;;;;;;;;;;19.80;46.60;;;;;;5108968;28;20479;-68
2022/10/15 00:06:57;;;;;;;;;;;19.80;46.70;;;;;;5107528;28;19916;-68
2022/10/15 00:09:24;;;;;;;;;;;19.80;46.40;;;;;;5104577;28;19908;-68
2022/10/15 00:11:51;;;;;;;;;;;19.90;46.10;;;;;;5112648;28;19965;-68
2022/10/15 00:14:17;;;;;;;;;;;19.80;46.00;;;;;;5112793;28;20313;-68
2022/10/15 00:16:44;;;;;;;;;;;19.80;44.60;;;;;;5111732;28;19934;-68
2022/10/15 00:19:11;;;;;;;;;;;19.80;47.00;;;;;;5112881;28;20010;-68
2022/10/15 00:21:37;;;;;;;;;;;19.90;46.90;;;;;;5105251;28;19920;-68
2022/10/15 00:24:04;;;;;;;;;;;19.90;45.20;;;;;;5112661;28;19915;-69
2022/10/15 00:26:31;;;;;;;;;;;19.90;46.90;;;;;;5093584;28;19927;-69
2022/10/15 00:28:58;;;;;;;;;;;20.00;48.10;;;;;;5112607;28;19908;-69
2022/10/15 00:31:26;;;;;;;;;;;19.90;46.90;;;;;;5112520;28;20255;-69
2022/10/15 00:33:53;;;;;;;;;;;20.00;46.10;;;;;;5094148;28;20475;-69
2022/10/15 00:36:29;;;;;;;;;;;20.00;45.70;;;;;;5111513;28;19994;-69
2022/10/15 00:38:56;;;;;;;;;;;20.00;46.70;;;;;;5094320;28;19968;-69
2022/10/15 00:41:23;;;;;;;;;;;20.10;47.90;;;;;;5094302;28;19916;-69
2022/10/15 00:44:10;;;;;;;;;;;20.20;43.30;;;;;;5112487;28;19939;-68
2022/10/15 00:46:39;;;;;;;;;;;20.20;42.20;;;;;;5044468;28;20323;-69
2022/10/15 00:49:09;;;;;;;;;;;20.20;42.60;;;;;;5094192;28;20381;-69
2022/10/15 00:51:37;;;;;;;;;;;20.20;43.40;;;;;;5112634;28;19929;-69
2022/10/15 00:54:03;;;;;;;;;;;20.20;45.00;;;;;;5094264;28;19908;-69
2022/10/15 00:56:30;;;;;;;;;;;20.30;44.60;;;;;;5111500;28;19957;-69
2022/10/15 00:58:57;;;;;;;;;;;20.30;46.90;;;;;;5111957;28;19908;-69
2022/10/15 01:01:24;;;;;;;;;;;20.30;47.30;;;;;;5111713;28;19926;-70
2022/10/15 01:03:52;;;;;;;;;;;20.40;48.10;;;;;;5094119;28;19946;-69
2022/10/15 01:06:18;;;;;;;;;;;20.50;48.00;;;;;;5111374;28;19919;-69
2022/10/15 01:08:45;;;;;;;;;;;20.50;48.50;;;;;;5093964;28;19957;-69
2022/10/15 01:11:14;;;;;;;;;;;20.60;49.80;;;;;;5112194;28;19915;-69
2022/10/15 01:13:48;;;;;;;;;;;20.60;48.60;;;;;;5108639;28;19919;-69
2022/10/15 01:16:20;;;;;;;;;;;20.60;47.40;;;;;;5103392;28;20365;-69
2022/10/15 01:18:54;;;;;;;;;;;20.60;46.90;;;;;;5112150;28;19908;-69
2022/10/15 01:21:21;;;;;;;;;;;20.60;48.30;;;;;;5111947;28;20008;-69
2022/10/15 01:23:53;;;;;;;;;;;20.60;47.70;;;;;;5112976;28;19942;-69
2022/10/15 01:26:35;;;;;;;;;;;20.60;47.60;;;;;;5096790;28;19916;-69
2022/10/15 01:29:13;;;;;;;;;;;20.60;48.30;;;;;;5115828;28;19965;-69
2022/10/15 01:31:42;;;;;;;;;;;20.70;47.40;;;;;;5115846;28;19919;-69
2022/10/15 01:34:09;;;;;;;;;;;20.60;46.90;;;;;;5097535;28;19908;-69
2022/10/15 01:36:37;;;;;;;;;;;20.60;48.00;;;;;;5115134;28;19912;-69
2022/10/15 01:39:23;;;;;;;;;;;20.60;48.00;;;;;;5097467;28;19915;-69
2022/10/15 01:41:51;;;;;;;;;;;20.60;48.40;;;;;;5094720;28;19922;-69
2022/10/15 01:44:19;;;;;;;;;;;20.60;49.10;;;;;;5095666;28;20057;-69
2022/10/15 01:46:47;;;;;;;;;;;20.70;48.00;;;;;;5097192;28;19956;-69
2022/10/15 01:49:14;;;;;;;;;;;20.70;48.00;;;;;;5097430;28;19915;-68
2022/10/15 01:51:42;;;;;;;;;;;20.60;46.30;;;;;;5096889;28;19908;-69
2022/10/15 01:56:55;;;;;;;;;;;20.70;48.30;;;;;;5099768;28;20440;-69
2022/10/15 01:59:22;;;;;;;;;;;20.70;47.80;;;;;;5115363;28;20389;-69
2022/10/15 02:01:48;;;;;;;;;;;20.70;48.50;;;;;;5115096;28;19916;-69
2022/10/15 02:04:25;;;;;;;;;;;20.80;49.80;;;;;;5113844;28;19920;-69
2022/10/15 02:07:08;;;;;;;;;;;20.70;49.00;;;;;;5112493;28;19912;-69
2022/10/15 02:09:53;;;;;;;;;;;20.80;48.50;;;;;;5097031;28;20370;-69
2022/10/15 02:12:36;;;;;;;;;;;20.80;47.80;;;;;;5114349;28;19912;-69
2022/10/15 02:15:18;;;;;;;;;;;20.80;47.60;;;;;;5114086;28;19912;-69
2022/10/15 02:17:54;;;;;;;;;;;20.80;47.50;;;;;;5114975;28;20014;-69
2022/10/15 02:20:24;;;;;;;;;;;20.80;47.80;;;;;;5114912;28;19999;-69
2022/10/15 02:23:01;;;;;;;;;;;20.80;47.40;;;;;;5096867;28;19922;-69
2022/10/15 02:25:28;;;;;;;;;;;20.80;47.80;;;;;;5094079;28;19963;-68
2022/10/15 02:27:55;;;;;;;;;;;20.80;46.60;;;;;;5114749;28;19919;-69
2022/10/15 02:30:22;;;;;;;;;;;20.70;46.40;;;;;;5114389;28;19951;-69
2022/10/15 02:32:50;;;;;;;;;;;20.70;47.50;;;;;;5096477;28;19914;-68
2022/10/15 02:35:17;;;;;;;;;;;20.70;46.40;;;;;;5112251;28;20369;-69
2022/10/15 02:37:44;;;;;;;;;;;20.70;46.30;;;;;;5096247;28;19914;-69
2022/10/15 02:40:10;;;;;;;;;;;20.70;48.00;;;;;;5086870;28;19919;-69
2022/10/15 02:42:37;;;;;;;;;;;20.70;50.20;;;;;;5065027;28;19927;-69
2022/10/15 02:45:04;;;;;;;;;;;20.80;50.40;;;;;;5098192;28;20020;-68
2022/10/15 02:47:31;;;;;;;;;;;20.80;50.20;;;;;;5112748;28;20277;-69
2022/10/15 02:49:58;;;;;;;;;;;20.80;50.90;;;;;;5113133;28;19912;-69
2022/10/15 02:52:24;;;;;;;;;;;20.80;49.10;;;;;;5105236;28;20323;-69
2022/10/15 02:54:51;;;;;;;;;;;20.80;51.30;;;;;;5113084;28;19969;-69
2022/10/15 02:57:17;;;;;;;;;;;20.80;50.90;;;;;;5113317;28;19908;-69
2022/10/15 02:59:44;;;;;;;;;;;20.80;50.60;;;;;;5113717;28;19912;-69
2022/10/15 03:02:10;;;;;;;;;;;20.80;51.80;;;;;;5114117;28;19916;-69
2022/10/15 03:04:38;;;;;;;;;;;20.80;52.30;;;;;;5113737;28;19926;-69
2022/10/15 03:07:04;;;;;;;;;;;20.80;52.80;;;;;;5086560;28;19923;-69
2022/10/15 03:09:31;;;;;;;;;;;20.80;53.20;;;;;;5113432;28;20401;-69
2022/10/15 03:11:58;;;;;;;;;;;20.80;53.50;;;;;;5113834;28;19908;-69
2022/10/15 03:14:24;;;;;;;;;;;20.70;51.70;;;;;;5105773;28;20329;-69
2022/10/15 03:16:51;;;;;;;;;;;20.70;52.10;;;;;;5110244;28;19912;-69
2022/10/15 03:19:17;;;;;;;;;;;20.70;49.80;;;;;;5113559;28;20357;-69
2022/10/15 03:21:44;;;;;;;;;;;20.70;52.10;;;;;;5113382;28;19996;-69
2022/10/15 03:24:10;;;;;;;;;;;20.70;51.40;;;;;;5113735;28;20385;-69
2022/10/15 03:26:37;;;;;;;;;;;20.60;52.50;;;;;;5112897;28;19958;-69
2022/10/15 03:29:04;;;;;;;;;;;20.60;50.00;;;;;;5113050;28;20411;-69
2022/10/15 03:31:30;;;;;;;;;;;20.70;51.50;;;;;;5113376;28;20002;-70
2022/10/15 03:33:57;;;;;;;;;;;20.60;51.00;;;;;;5106708;28;19949;-69
2022/10/15 03:36:23;;;;;;;;;;;20.70;50.90;;;;;;5112191;28;20396;-70
2022/10/15 03:38:50;;;;;;;;;;;20.60;51.90;;;;;;5113056;28;19915;-70
2022/10/15 03:41:16;;;;;;;;;;;20.60;50.10;;;;;;5106522;28;19920;-70
2022/10/15 03:43:43;;;;;;;;;;;20.60;49.20;;;;;;5113014;28;19908;-71
2022/10/15 03:46:10;;;;;;;;;;;20.50;49.90;;;;;;5112278;28;20300;-70
2022/10/15 03:48:37;;;;;;;;;;;20.60;50.30;;;;;;5113163;28;19954;-71
2022/10/15 03:51:03;;;;;;;;;;;20.50;49.30;;;;;;5095174;28;19912;-70
2022/10/15 03:53:30;;;;;;;;;;;20.50;47.50;;;;;;5108279;28;19916;-71
2022/10/15 03:56:01;;;;;;;;;;;20.50;52.00;;;;;;5105448;28;20018;-70
2022/10/15 03:58:28;;;;;;;;;;;20.40;49.50;;;;;;5098662;28;19952;-70
2022/10/15 04:00:55;;;;;;;;;;;20.40;50.10;;;;;;5112628;28;19916;-70
2022/10/15 04:03:21;;;;;;;;;;;20.50;50.70;;;;;;5111754;28;19942;-70
2022/10/15 04:05:51;;;;;;;;;;;20.50;49.10;;;;;;5112681;28;19907;-70
2022/10/15 04:08:18;;;;;;;;;;;20.50;48.40;;;;;;5092422;28;20006;-70
2022/10/15 04:10:44;;;;;;;;;;;20.50;48.70;;;;;;5112645;28;19998;-70
2022/10/15 04:13:11;;;;;;;;;;;20.50;50.30;;;;;;5094709;28;19916;-70
2022/10/15 04:15:41;;;;;;;;;;;20.50;51.70;;;;;;5112798;28;19939;-70
2022/10/15 04:18:07;;;;;;;;;;;20.50;50.30;;;;;;5113107;28;19989;-70
2022/10/15 04:20:34;;;;;;;;;;;20.50;50.30;;;;;;5112238;28;19916;-70
2022/10/15 04:23:01;;;;;;;;;;;20.50;48.00;;;;;;5112383;28;19908;-69
2022/10/15 04:25:27;;;;;;;;;;;20.60;51.40;;;;;;5112524;28;19915;-70
2022/10/15 04:27:54;;;;;;;;;;;20.60;53.20;;;;;;5112574;28;19970;-70
2022/10/15 04:30:21;;;;;;;;;;;20.50;53.60;;;;;;5112604;28;20361;-70
2022/10/15 04:32:50;;;;;;;;;;;20.50;53.10;;;;;;5111637;28;19951;-70
2022/10/15 04:35:17;;;;;;;;;;;20.50;53.40;;;;;;5112402;28;19908;-70
2022/10/15 04:37:43;;;;;;;;;;;20.50;53.20;;;;;;5112519;28;19908;-70
2022/10/15 04:40:11;;;;;;;;;;;20.50;53.50;;;;;;5112679;28;19908;-69
2022/10/15 04:42:38;;;;;;;;;;;20.50;53.80;;;;;;5112068;28;19915;-69
2022/10/15 04:45:05;;;;;;;;;;;20.50;55.10;;;;;;5105640;28;19963;-70
2022/10/15 04:47:32;;;;;;;;;;;20.50;53.80;;;;;;5090751;28;19912;-69
2022/10/15 04:49:59;;;;;;;;;;;20.50;54.60;;;;;;5112624;28;19940;-69
2022/10/15 04:52:25;;;;;;;;;;;20.50;54.50;;;;;;5112440;28;19985;-69
2022/10/15 04:54:52;;;;;;;;;;;20.50;54.20;;;;;;5098365;28;19912;-69
2022/10/15 04:57:18;;;;;;;;;;;20.50;55.50;;;;;;5112663;28;19908;-70
2022/10/15 04:59:45;;;;;;;;;;;20.50;56.60;;;;;;5114959;28;19912;-70
2022/10/15 05:02:11;;;;;;;;;;;20.50;56.10;;;;;;5116165;28;19923;-70
2022/10/15 05:04:38;;;;;;;;;;;20.40;55.30;;;;;;5115209;28;20037;-71
2022/10/15 05:07:05;;;;;;;;;;;20.40;55.80;;;;;;5116427;28;19957;-71
2022/10/15 05:09:31;;;;;;;;;;;20.40;56.10;;;;;;5116166;28;19915;-71
2022/10/15 05:11:58;;;;;;;;;;;20.40;53.60;;;;;;5116120;28;20358;-72
2022/10/15 05:14:24;;;;;;;;;;;20.40;56.00;;;;;;5115537;28;19916;-80
2022/10/15 05:16:51;;;;;;;;;;;20.40;57.90;;;;;;5116204;28;19938;-80
2022/10/15 05:19:18;;;;;;;;;;;20.40;57.50;;;;;;5116309;28;19911;-75
2022/10/15 05:21:45;;;;;;;;;;;20.40;57.20;;;;;;5109994;27;19923;-76
2022/10/15 05:24:11;;;;;;;;;;;20.40;57.20;;;;;;5091081;28;20289;-77
2022/10/15 05:26:38;;;;;;;;;;;20.40;58.60;;;;;;5113462;28;19959;-77
2022/10/15 05:29:05;;;;;;;;;;;20.30;60.30;;;;;;5082164;28;20300;-75
2022/10/15 05:31:32;;;;;;;;;;;20.30;60.20;;;;;;5112566;28;19915;-76
2022/10/15 05:33:58;;;;;;;;;;;20.30;60.60;;;;;;5112470;28;19922;-76
2022/10/15 05:36:25;;;;;;;;;;;20.30;60.40;;;;;;5112446;28;19918;-77
2022/10/15 05:38:56;;;;;;;;;;;20.30;60.60;;;;;;5094304;28;19916;-79
2022/10/15 05:41:23;;;;;;;;;;;20.20;61.10;;;;;;5102135;28;19959;-79
2022/10/15 05:43:49;;;;;;;;;;;20.20;62.10;;;;;;5111773;28;19915;-78
2022/10/15 05:46:16;;;;;;;;;;;20.20;62.30;;;;;;5112441;28;19919;-81
2022/10/15 05:48:44;;;;;;;;;;;20.20;61.90;;;;;;5110675;28;20377;-80
2022/10/15 05:51:11;;;;;;;;;;;20.20;61.80;;;;;;5086248;28;19969;-79
2022/10/15 05:53:39;;;;;;;;;;;20.10;61.00;;;;;;5112195;27;19998;-82
2022/10/15 05:56:06;;;;;;;;;;;20.10;61.30;;;;;;5113244;27;20319;-81
2022/10/15 05:58:33;;;;;;;;;;;20.20;62.00;;;;;;5112996;27;19950;-82
2022/10/15 06:01:00;;;;;;;;;;;20.10;61.40;;;;;;5113945;27;20018;-80
2022/10/15 06:03:27;;;;;;;;;;;20.10;60.10;;;;;;5114490;27;19924;-80
2022/10/15 06:05:53;;;;;;;;;;;20.10;60.10;;;;;;5114546;27;19980;-75
2022/10/15 06:08:20;;;;;;;;;;;20.10;61.00;;;;;;5118009;27;19912;-77
2022/10/15 06:10:47;;;;;;;;;;;20.10;62.30;;;;;;5096471;28;19912;-77
2022/10/15 06:13:13;;;;;;;;;;;20.00;62.80;;;;;;5118054;27;19915;-77
2022/10/15 06:15:40;;;;;;;;;;;19.90;62.80;;;;;;5110289;28;19912;-80
2022/10/15 06:18:08;;;;;;;;;;;20.00;63.60;;;;;;5109719;28;20362;-79
2022/10/15 06:20:35;;;;;;;;;;;19.90;63.00;;;;;;5097020;28;20377;-77
2022/10/15 06:23:02;;;;;;;;;;;19.90;63.10;;;;;;5089294;28;19924;-77
2022/10/15 06:25:29;;;;;;;;;;;19.90;63.80;;;;;;5094033;28;19977;-78
2022/10/15 06:27:55;;;;;;;;;;;19.80;64.30;;;;;;5110671;27;19912;-79
2022/10/15 06:30:22;;;;;;;;;;;19.80;65.00;;;;;;5108034;28;20361;-78
2022/10/15 06:32:49;;;;;;;;;;;19.70;64.60;;;;;;5114910;27;19916;-78
2022/10/15 06:35:16;;;;;;;;;;;19.70;65.40;;;;;;5107120;28;20056;-82
2022/10/15 06:37:42;;;;;;;;;;;19.70;65.90;;;;;;5098378;28;19912;-86
2022/10/15 06:40:10;;;;;;;;;;;19.70;65.00;;;;;;5115549;27;20766;-80
2022/10/15 06:42:36;;;;;;;;;;;19.70;64.90;;;;;;5119943;27;19931;-80
2022/10/15 06:45:05;;;;;;;;;;;19.70;64.10;;;;;;5111927;27;20234;-79
2022/10/15 06:47:32;;;;;;;;;;;19.70;64.60;;;;;;5092185;28;19915;-80
2022/10/15 06:49:59;;;;;;;;;;;19.70;65.30;;;;;;5104682;27;20006;-79
2022/10/15 06:52:26;;;;;;;;;;;19.70;64.70;;;;;;5118360;27;20277;-80
2022/10/15 06:54:52;;;;;;;;;;;19.60;64.90;;;;;;5088390;28;19916;-80
2022/10/15 06:57:19;;;;;;;;;;;19.60;65.00;;;;;;5093425;28;19916;-77
2022/10/15 06:59:45;;;;;;;;;;;19.60;64.90;;;;;;5093672;28;20743;-79
2022/10/15 07:02:16;;;;;;;;;;;19.60;65.50;;;;;;5092388;28;19924;-78
2022/10/15 07:04:43;;;;;;;;;;;19.60;65.70;;;;;;5093724;28;20096;-79
2022/10/15 16:11:26;;;;;;;;;;;18.00;79.30;;;;;;5089551;28;20010;-74
2022/10/15 16:13:53;;;;;;;;;;;18.00;79.10;;;;;;5091571;28;20293;-75
2022/10/15 16:16:19;;;;;;;;;;;18.00;79.20;;;;;;5092309;28;20011;-75
2022/10/15 16:18:46;;;;;;;;;;;18.00;78.70;;;;;;5092619;28;19915;-75
2022/10/15 16:21:12;;;;;;;;;;;18.00;79.10;;;;;;5092223;28;20335;-75
2022/10/15 16:23:41;;;;;;;;;;;18.00;79.00;;;;;;5092604;28;19908;-75
2022/10/15 16:26:07;;;;;;;;;;;18.00;78.80;;;;;;5091315;28;19908;-74
2022/10/15 16:28:34;;;;;;;;;;;17.90;78.70;;;;;;5092068;28;19919;-75
2022/10/15 16:31:16;;;;;;;;;;;18.00;78.60;;;;;;5082345;28;19999;-74
2022/10/15 16:33:43;;;;;;;;;;;18.00;78.90;;;;;;5078660;28;19934;-75
2022/10/15 16:36:10;;;;;;;;;;;18.00;78.90;;;;;;5087730;28;19909;-75
2022/10/15 16:38:38;;;;;;;;;;;18.00;78.30;;;;;;5073808;28;20381;-75
2022/10/15 16:41:04;;;;;;;;;;;18.00;78.70;;;;;;5092119;28;19912;-75
2022/10/15 16:43:31;;;;;;;;;;;18.00;78.40;;;;;;5091029;28;20286;-74
2022/10/15 16:45:58;;;;;;;;;;;18.00;78.90;;;;;;5092118;28;19950;-75
2022/10/15 16:48:25;;;;;;;;;;;18.00;78.80;;;;;;5092077;28;19916;-74
2022/10/15 16:51:01;;;;;;;;;;;18.00;78.60;;;;;;5073692;28;20398;-75
2022/10/15 16:53:28;;;;;;;;;;;18.00;78.40;;;;;;5091490;28;20174;-75
2022/10/15 16:56:01;;;;;;;;;;;18.00;78.60;;;;;;5094944;28;20455;-74
2022/10/15 16:58:29;;;;;;;;;;;17.90;78.40;;;;;;5096165;28;19919;-75
2022/10/15 17:00:59;;;;;;;;;;;17.90;78.70;;;;;;5078223;28;19908;-75
2022/10/15 17:03:26;;;;;;;;;;;17.90;78.50;;;;;;5096014;28;19923;-75
2022/10/15 17:05:56;;;;;;;;;;;17.90;78.30;;;;;;5095489;28;19916;-75
2022/10/15 17:08:24;;;;;;;;;;;17.80;78.80;;;;;;5096198;28;19913;-75
2022/10/15 17:10:50;;;;;;;;;;;17.80;78.80;;;;;;5095887;28;19999;-75
2022/10/15 17:13:17;;;;;;;;;;;17.80;79.00;;;;;;5086130;28;19913;-75
2022/10/15 17:15:43;;;;;;;;;;;17.80;78.80;;;;;;5092856;28;19912;-74
2022/10/15 17:18:10;;;;;;;;;;;17.80;78.80;;;;;;5094806;28;19919;-74
2022/10/15 17:20:42;;;;;;;;;;;17.80;78.80;;;;;;5095719;28;19912;-75
2022/10/15 17:23:09;;;;;;;;;;;17.80;78.70;;;;;;5095680;28;19969;-75
2022/10/15 17:25:35;;;;;;;;;;;17.80;78.90;;;;;;5095153;28;19974;-75
2022/10/15 17:28:02;;;;;;;;;;;17.80;78.60;;;;;;5094849;28;20343;-74
2022/10/15 17:30:29;;;;;;;;;;;17.70;78.50;;;;;;5095007;28;19908;-75
2022/10/15 17:32:55;;;;;;;;;;;17.70;78.20;;;;;;5095452;28;19957;-75
2022/10/15 17:35:22;;;;;;;;;;;17.70;78.50;;;;;;5095615;28;19926;-75
2022/10/15 17:37:49;;;;;;;;;;;17.70;78.30;;;;;;5095214;28;19934;-75
2022/10/15 17:40:15;;;;;;;;;;;17.70;78.10;;;;;;5094435;28;19916;-75
2022/10/15 17:42:42;;;;;;;;;;;17.70;78.20;;;;;;5095099;28;19923;-74
2022/10/15 17:45:12;;;;;;;;;;;17.70;78.10;;;;;;5095462;28;19951;-74
2022/10/15 17:47:39;;;;;;;;;;;17.70;78.00;;;;;;5094922;28;20058;-75
2022/10/15 17:50:06;;;;;;;;;;;17.70;77.70;;;;;;5094999;28;19909;-75
2022/10/15 17:52:32;;;;;;;;;;;17.70;78.30;;;;;;5094329;28;20003;-75
2022/10/15 17:54:59;;;;;;;;;;;17.70;77.90;;;;;;5094748;28;19923;-75
2022/10/15 17:57:26;;;;;;;;;;;17.70;78.10;;;;;;5094960;28;19931;-75
2022/10/15 17:59:53;;;;;;;;;;;17.70;78.20;;;;;;5093503;28;20423;-74
2022/10/15 18:02:19;;;;;;;;;;;17.60;78.00;;;;;;5094735;28;20160;-75
2022/10/15 18:04:46;;;;;;;;;;;17.60;78.30;;;;;;5094491;28;20397;-75
2022/10/15 18:07:16;;;;;;;;;;;17.60;77.90;;;;;;5094362;28;19908;-75
2022/10/15 18:09:42;;;;;;;;;;;17.50;78.40;;;;;;5094686;28;20255;-75
2022/10/15 18:12:09;;;;;;;;;;;17.50;78.20;;;;;;5093826;28;19920;-75
2022/10/15 18:14:36;;;;;;;;;;;17.40;78.40;;;;;;5094370;28;20370;-75
2022/10/15 18:17:03;;;;;;;;;;;17.40;78.60;;;;;;5093759;28;20319;-75
2022/10/15 18:19:29;;;;;;;;;;;17.40;78.80;;;;;;5092205;28;19930;-75
2022/10/15 18:21:56;;;;;;;;;;;17.40;78.90;;;;;;5085980;28;19923;-75
2022/10/15 18:24:23;;;;;;;;;;;17.30;79.10;;;;;;5094594;28;20010;-75
2022/10/15 18:26:49;;;;;;;;;;;17.30;79.20;;;;;;5094361;28;19966;-75
2022/10/15 18:29:16;;;;;;;;;;;17.30;79.40;;;;;;5093250;28;19913;-75
2022/10/15 18:31:43;;;;;;;;;;;17.20;79.30;;;;;;5094459;28;19955;-74
2022/10/15 18:34:09;;;;;;;;;;;17.20;79.50;;;;;;5094318;28;20366;-74
2022/10/15 18:36:40;;;;;;;;;;;17.10;79.70;;;;;;5094243;28;19914;-75
2022/10/15 18:39:06;;;;;;;;;;;17.20;80.10;;;;;;5094321;28;19908;-75
2022/10/15 18:41:35;;;;;;;;;;;17.10;80.00;;;;;;5093338;28;19920;-75
2022/10/15 18:44:03;;;;;;;;;;;17.10;80.20;;;;;;5094280;28;19960;-75
2022/10/15 18:46:30;;;;;;;;;;;17.10;80.30;;;;;;5092075;28;20046;-75
2022/10/15 18:48:56;;;;;;;;;;;17.10;80.30;;;;;;5090659;28;19981;-74
2022/10/15 18:51:26;;;;;;;;;;;17.00;80.30;;;;;;5077548;28;19916;-74
2022/10/15 18:53:52;;;;;;;;;;;17.00;80.30;;;;;;5091286;28;19916;-74
2022/10/15 18:56:19;;;;;;;;;;;17.00;80.10;;;;;;5081532;28;19917;-74
2022/10/15 18:58:46;;;;;;;;;;;16.90;80.10;;;;;;5089058;28;19920;-74
2022/10/15 19:01:25;;;;;;;;;;;16.90;80.10;;;;;;5090736;28;19908;-74
2022/10/15 19:03:52;;;;;;;;;;;16.90;80.20;;;;;;5090589;28;19929;-73
2022/10/15 19:06:22;;;;;;;;;;;16.90;80.60;;;;;;5091043;28;19912;-72
2022/10/15 19:08:49;;;;;;;;;;;16.90;80.60;;;;;;5083200;28;19988;-72
2022/10/15 19:11:15;;;;;;;;;;;16.90;80.70;;;;;;5090856;28;20350;-72
2022/10/15 19:13:42;;;;;;;;;;;17.00;81.10;;;;;;5090632;28;19912;-72
2022/10/15 19:16:08;;;;;;;;;;;16.90;81.40;;;;;;5090900;28;20251;-74
2022/10/15 19:18:36;;;;;;;;;;;16.90;81.90;;;;;;5090045;28;19915;-72
2022/10/15 19:21:05;;;;;;;;;;;16.90;82.30;;;;;;5072399;28;20378;-73
2022/10/15 19:23:32;;;;;;;;;;;16.90;82.90;;;;;;5090596;28;19924;-75
2022/10/15 19:25:58;;;;;;;;;;;16.80;83.20;;;;;;5090754;28;19919;-75
2022/10/15 19:28:25;;;;;;;;;;;16.80;83.50;;;;;;5089667;28;19916;-75
2022/10/15 19:30:56;;;;;;;;;;;16.80;83.50;;;;;;5062408;28;20431;-75
2022/10/15 19:33:23;;;;;;;;;;;16.70;83.60;;;;;;5078871;28;20344;-74
2022/10/15 19:35:50;;;;;;;;;;;16.70;83.40;;;;;;5063438;28;20306;-74
2022/10/15 19:38:17;;;;;;;;;;;16.80;83.40;;;;;;5083986;28;19916;-73
2022/10/15 19:40:43;;;;;;;;;;;16.80;83.20;;;;;;5064584;28;19959;-73
2022/10/15 19:43:10;;;;;;;;;;;16.80;83.40;;;;;;5092552;28;19927;-72
2022/10/15 19:45:41;;;;;;;;;;;16.80;83.30;;;;;;5083572;28;19919;-73
2022/10/15 19:48:09;;;;;;;;;;;16.80;83.20;;;;;;5090527;28;19943;-74
2022/10/15 19:50:36;;;;;;;;;;;16.80;83.20;;;;;;5091725;28;20232;-74
2022/10/15 19:53:03;;;;;;;;;;;16.90;83.30;;;;;;5092230;28;19912;-74
2022/10/15 19:55:30;;;;;;;;;;;17.00;82.90;;;;;;5065944;28;20276;-75
2022/10/15 19:57:56;;;;;;;;;;;17.00;82.80;;;;;;5090972;28;19911;-75
2022/10/15 20:00:23;;;;;;;;;;;17.00;82.70;;;;;;5080449;28;20002;-74
2022/10/15 20:02:50;;;;;;;;;;;17.00;82.50;;;;;;5064987;28;20026;-73
2022/10/15 20:05:16;;;;;;;;;;;17.10;82.40;;;;;;5089900;28;19912;-74
2022/10/15 20:07:43;;;;;;;;;;;17.10;82.20;;;;;;5093136;28;19942;-74
2022/10/15 20:10:09;;;;;;;;;;;17.10;82.10;;;;;;5085780;28;19925;-73
2022/10/15 20:12:36;;;;;;;;;;;17.20;82.00;;;;;;5068952;28;19958;-73
2022/10/15 20:15:03;;;;;;;;;;;17.20;81.50;;;;;;5048359;28;20264;-74
2022/10/15 20:17:29;;;;;;;;;;;17.30;80.90;;;;;;5075305;28;20400;-74
2022/10/15 20:19:56;;;;;;;;;;;17.30;80.10;;;;;;5057555;28;20003;-74
